sensor_id;sensor_type;location;lat;lon;timestamp;pressure;altitude;pressure_sealevel;temperature;humidity
41202;BME280;26936;50.524;8.684;2023-04-27T00:00:21;99605.16;;;5.73;91.63
41202;BME280;26936;50.524;8.684;2023-04-27T00:02:46;99601.63;;;5.69;92.98
41202;BME280;26936;50.524;8.684;2023-04-27T00:05:12;99597.63;;;5.70;92.91
41202;BME280;26936;50.524;8.684;2023-04-27T00:07:37;99604.78;;;5.71;92.73
41202;BME280;26936;50.524;8.684;2023-04-27T00:10:03;99593.22;;;5.73;91.84
41202;BME280;26936;50.524;8.684;2023-04-27T00:12:28;99594.41;;;5.72;92.45
41202;BME280;26936;50.524;8.684;2023-04-27T00:14:53;99590.47;;;5.69;94.09
41202;BME280;26936;50.524;8.684;2023-04-27T00:17:19;99593.59;;;5.71;94.40
41202;BME280;26936;50.524;8.684;2023-04-27T00:19:44;99586.50;;;5.63;95.23
41202;BME280;26936;50.524;8.684;2023-04-27T00:22:11;99586.91;;;5.65;94.82
41202;BME280;26936;50.524;8.684;2023-04-27T00:24:36;99583.25;;;5.68;93.67
41202;BME280;26936;50.524;8.684;2023-04-27T00:27:01;99579.69;;;5.68;93.72
41202;BME280;26936;50.524;8.684;2023-04-27T00:29:27;99580.91;;;5.63;93.69
41202;BME280;26936;50.524;8.684;2023-04-27T00:31:52;99581.34;;;5.62;93.27
41202;BME280;26936;50.524;8.684;2023-04-27T00:34:17;99581.44;;;5.54;93.83
41202;BME280;26936;50.524;8.684;2023-04-27T00:36:42;99573.06;;;5.54;94.06
41202;BME280;26936;50.524;8.684;2023-04-27T00:39:08;99571.03;;;5.55;93.82
41202;BME280;26936;50.524;8.684;2023-04-27T00:41:36;99576.28;;;5.49;93.59
41202;BME280;26936;50.524;8.684;2023-04-27T00:44:02;99579.09;;;5.49;94.03
41202;BME280;26936;50.524;8.684;2023-04-27T00:46:28;99578.72;;;5.44;95.09
41202;BME280;26936;50.524;8.684;2023-04-27T00:48:54;99575.63;;;5.35;95.49
41202;BME280;26936;50.524;8.684;2023-04-27T00:51:20;99570.91;;;5.28;95.06
41202;BME280;26936;50.524;8.684;2023-04-27T00:53:45;99579.31;;;5.25;94.79
41202;BME280;26936;50.524;8.684;2023-04-27T00:56:11;99576.56;;;5.21;94.73
41202;BME280;26936;50.524;8.684;2023-04-27T00:58:37;99583.44;;;5.06;93.73
41202;BME280;26936;50.524;8.684;2023-04-27T01:01:02;99579.53;;;5.00;94.37
41202;BME280;26936;50.524;8.684;2023-04-27T01:03:28;99578.72;;;5.00;94.27
41202;BME280;26936;50.524;8.684;2023-04-27T01:05:54;99585.94;;;4.94;94.82
41202;BME280;26936;50.524;8.684;2023-04-27T01:08:20;99583.25;;;4.80;94.47
41202;BME280;26936;50.524;8.684;2023-04-27T01:10:46;99582.91;;;4.71;95.86
41202;BME280;26936;50.524;8.684;2023-04-27T01:13:13;99585.72;;;4.71;95.42
41202;BME280;26936;50.524;8.684;2023-04-27T01:15:39;99580.97;;;4.64;95.45
41202;BME280;26936;50.524;8.684;2023-04-27T01:18:05;99591.41;;;4.57;95.26
41202;BME280;26936;50.524;8.684;2023-04-27T01:20:30;99588.63;;;4.53;95.95
41202;BME280;26936;50.524;8.684;2023-04-27T01:22:56;99595.00;;;4.50;95.51
41202;BME280;26936;50.524;8.684;2023-04-27T01:25:22;99588.63;;;4.50;95.68
41202;BME280;26936;50.524;8.684;2023-04-27T01:27:47;99589.47;;;4.40;95.56
41202;BME280;26936;50.524;8.684;2023-04-27T01:30:13;99587.88;;;4.42;95.48
41202;BME280;26936;50.524;8.684;2023-04-27T01:32:39;99587.50;;;4.37;94.92
41202;BME280;26936;50.524;8.684;2023-04-27T01:35:05;99584.75;;;4.30;94.85
41202;BME280;26936;50.524;8.684;2023-04-27T01:37:31;99592.38;;;4.18;95.69
41202;BME280;26936;50.524;8.684;2023-04-27T01:39:56;99586.41;;;4.13;96.52
41202;BME280;26936;50.524;8.684;2023-04-27T01:42:21;99590.03;;;4.10;96.05
41202;BME280;26936;50.524;8.684;2023-04-27T01:44:47;99594.03;;;4.05;96.00
41202;BME280;26936;50.524;8.684;2023-04-27T01:47:14;99604.81;;;3.93;97.09
41202;BME280;26936;50.524;8.684;2023-04-27T01:49:40;99600.44;;;3.95;97.19
41202;BME280;26936;50.524;8.684;2023-04-27T01:52:06;99604.03;;;3.96;96.33
41202;BME280;26936;50.524;8.684;2023-04-27T01:54:31;99610.41;;;3.89;98.00
41202;BME280;26936;50.524;8.684;2023-04-27T01:56:56;99605.25;;;3.88;97.83
41202;BME280;26936;50.524;8.684;2023-04-27T01:59:22;99612.03;;;3.80;98.28
41202;BME280;26936;50.524;8.684;2023-04-27T02:01:48;99612.44;;;3.75;97.99
41202;BME280;26936;50.524;8.684;2023-04-27T02:04:13;99618.44;;;3.66;98.54
41202;BME280;26936;50.524;8.684;2023-04-27T02:06:38;99620.81;;;3.64;99.06
41202;BME280;26936;50.524;8.684;2023-04-27T02:09:04;99615.63;;;3.63;99.72
41202;BME280;26936;50.524;8.684;2023-04-27T02:11:29;99616.03;;;3.65;99.48
41202;BME280;26936;50.524;8.684;2023-04-27T02:13:55;99624.41;;;3.68;99.66
41202;BME280;26936;50.524;8.684;2023-04-27T02:16:21;99621.22;;;3.73;99.33
41202;BME280;26936;50.524;8.684;2023-04-27T02:18:46;99624.41;;;3.68;100.00
41202;BME280;26936;50.524;8.684;2023-04-27T02:21:11;99624.75;;;3.74;100.00
41202;BME280;26936;50.524;8.684;2023-04-27T02:23:36;99620.41;;;3.73;100.00
41202;BME280;26936;50.524;8.684;2023-04-27T02:26:02;99627.19;;;3.72;100.00
41202;BME280;26936;50.524;8.684;2023-04-27T02:28:27;99634.72;;;3.78;100.00
41202;BME280;26936;50.524;8.684;2023-04-27T02:30:53;99631.53;;;3.80;100.00
41202;BME280;26936;50.524;8.684;2023-04-27T02:33:18;99625.56;;;3.78;100.00
41202;BME280;26936;50.524;8.684;2023-04-27T02:35:43;99627.53;;;3.81;100.00
41202;BME280;26936;50.524;8.684;2023-04-27T02:38:08;99625.09;;;3.93;100.00
41202;BME280;26936;50.524;8.684;2023-04-27T02:40:34;99627.91;;;3.93;100.00
41202;BME280;26936;50.524;8.684;2023-04-27T02:42:59;99630.28;;;3.95;100.00
41202;BME280;26936;50.524;8.684;2023-04-27T02:45:25;99631.47;;;3.97;100.00
41202;BME280;26936;50.524;8.684;2023-04-27T02:47:50;99632.25;;;4.01;100.00
41202;BME280;26936;50.524;8.684;2023-04-27T02:50:16;99642.22;;;4.02;100.00
41202;BME280;26936;50.524;8.684;2023-04-27T02:52:41;99635.81;;;4.09;100.00
41202;BME280;26936;50.524;8.684;2023-04-27T02:55:06;99639.78;;;4.15;100.00
41202;BME280;26936;50.524;8.684;2023-04-27T02:57:32;99638.22;;;4.10;100.00
41202;BME280;26936;50.524;8.684;2023-04-27T02:59:57;99638.19;;;4.14;100.00
41202;BME280;26936;50.524;8.684;2023-04-27T03:02:22;99633.81;;;4.13;100.00
41202;BME280;26936;50.524;8.684;2023-04-27T03:04:51;99644.94;;;4.16;100.00
41202;BME280;26936;50.524;8.684;2023-04-27T03:07:17;99642.56;;;4.18;100.00
41202;BME280;26936;50.524;8.684;2023-04-27T03:09:43;99638.97;;;4.22;100.00
41202;BME280;26936;50.524;8.684;2023-04-27T03:12:08;99638.94;;;4.25;100.00
41202;BME280;26936;50.524;8.684;2023-04-27T03:14:33;99625.00;;;4.22;100.00
41202;BME280;26936;50.524;8.684;2023-04-27T03:16:59;99627.00;;;4.25;100.00
41202;BME280;26936;50.524;8.684;2023-04-27T03:19:24;99615.84;;;4.21;100.00
41202;BME280;26936;50.524;8.684;2023-04-27T03:21:50;99617.88;;;4.21;100.00
41202;BME280;26936;50.524;8.684;2023-04-27T03:24:15;99619.84;;;4.16;100.00
41202;BME280;26936;50.524;8.684;2023-04-27T03:26:41;99633.03;;;4.12;100.00
41202;BME280;26936;50.524;8.684;2023-04-27T03:29:06;99633.44;;;4.07;100.00
41202;BME280;26936;50.524;8.684;2023-04-27T03:31:31;99631.47;;;4.04;100.00
41202;BME280;26936;50.524;8.684;2023-04-27T03:33:57;99639.84;;;4.01;100.00
41202;BME280;26936;50.524;8.684;2023-04-27T03:36:22;99631.91;;;3.89;100.00
41202;BME280;26936;50.524;8.684;2023-04-27T03:38:47;99633.47;;;3.90;100.00
41202;BME280;26936;50.524;8.684;2023-04-27T03:41:13;99628.34;;;3.81;100.00
41202;BME280;26936;50.524;8.684;2023-04-27T03:43:38;99622.38;;;3.76;100.00
41202;BME280;26936;50.524;8.684;2023-04-27T03:46:03;99625.97;;;3.73;100.00
41202;BME280;26936;50.524;8.684;2023-04-27T03:48:28;99624.75;;;3.70;100.00
41202;BME280;26936;50.524;8.684;2023-04-27T03:50:54;99634.72;;;3.64;100.00
41202;BME280;26936;50.524;8.684;2023-04-27T03:53:19;99631.16;;;3.64;100.00
41202;BME280;26936;50.524;8.684;2023-04-27T03:55:45;99631.53;;;3.69;100.00
41202;BME280;26936;50.524;8.684;2023-04-27T03:58:11;99625.97;;;3.66;100.00
41202;BME280;26936;50.524;8.684;2023-04-27T04:00:37;99622.00;;;3.63;100.00
41202;BME280;26936;50.524;8.684;2023-04-27T04:03:03;99636.34;;;3.65;100.00
41202;BME280;26936;50.524;8.684;2023-04-27T04:05:28;99635.94;;;3.67;100.00
41202;BME280;26936;50.524;8.684;2023-04-27T04:07:57;99640.31;;;3.71;100.00
41202;BME280;26936;50.524;8.684;2023-04-27T04:10:22;99638.31;;;3.72;100.00
41202;BME280;26936;50.524;8.684;2023-04-27T04:12:48;99643.84;;;3.75;100.00
41202;BME280;26936;50.524;8.684;2023-04-27T04:15:13;99640.28;;;3.78;100.00
41202;BME280;26936;50.524;8.684;2023-04-27T04:17:38;99648.63;;;3.82;100.00
41202;BME280;26936;50.524;8.684;2023-04-27T04:20:04;99646.25;;;3.80;100.00
41202;BME280;26936;50.524;8.684;2023-04-27T04:22:38;99649.81;;;3.84;100.00
41202;BME280;26936;50.524;8.684;2023-04-27T04:25:05;99659.75;;;3.85;100.00
41202;BME280;26936;50.524;8.684;2023-04-27T04:27:30;99648.63;;;3.82;100.00
41202;BME280;26936;50.524;8.684;2023-04-27T04:29:56;99646.63;;;3.82;100.00
41202;BME280;26936;50.524;8.684;2023-04-27T04:32:24;99650.63;;;3.81;100.00
41202;BME280;26936;50.524;8.684;2023-04-27T04:34:55;99643.03;;;3.82;100.00
41202;BME280;26936;50.524;8.684;2023-04-27T04:37:20;99647.81;;;3.88;100.00
41202;BME280;26936;50.524;8.684;2023-04-27T04:39:45;99651.81;;;3.87;100.00
41202;BME280;26936;50.524;8.684;2023-04-27T04:42:11;99646.22;;;3.91;100.00
41202;BME280;26936;50.524;8.684;2023-04-27T04:44:36;99649.03;;;3.87;100.00
41202;BME280;26936;50.524;8.684;2023-04-27T04:47:03;99653.38;;;3.92;99.41
41202;BME280;26936;50.524;8.684;2023-04-27T04:49:28;99651.00;;;3.87;99.17
41202;BME280;26936;50.524;8.684;2023-04-27T04:51:53;99658.19;;;3.81;99.15
41202;BME280;26936;50.524;8.684;2023-04-27T04:54:19;99649.81;;;3.77;99.40
41202;BME280;26936;50.524;8.684;2023-04-27T04:56:44;99655.00;;;3.75;99.17
41202;BME280;26936;50.524;8.684;2023-04-27T04:59:09;99663.72;;;3.95;97.48
41202;BME280;26936;50.524;8.684;2023-04-27T05:01:35;99673.28;;;4.01;96.88
41202;BME280;26936;50.524;8.684;2023-04-27T05:04:00;99669.25;;;4.12;96.88
41202;BME280;26936;50.524;8.684;2023-04-27T05:06:25;99664.03;;;4.22;96.54
41202;BME280;26936;50.524;8.684;2023-04-27T05:08:51;99669.13;;;4.48;96.33
41202;BME280;26936;50.524;8.684;2023-04-27T05:11:16;99668.19;;;4.75;95.09
41202;BME280;26936;50.524;8.684;2023-04-27T05:13:42;99666.88;;;4.94;93.90
41202;BME280;26936;50.524;8.684;2023-04-27T05:16:07;99680.22;;;5.27;92.90
41202;BME280;26936;50.524;8.684;2023-04-27T05:18:33;99680.09;;;5.44;91.92
41202;BME280;26936;50.524;8.684;2023-04-27T05:20:58;99675.41;;;5.75;91.08
41202;BME280;26936;50.524;8.684;2023-04-27T05:23:24;99678.28;;;6.09;89.75
41202;BME280;26936;50.524;8.684;2023-04-27T05:25:49;99679.25;;;6.62;87.46
41202;BME280;26936;50.524;8.684;2023-04-27T05:28:14;99681.50;;;7.05;85.32
41202;BME280;26936;50.524;8.684;2023-04-27T05:30:40;99677.28;;;7.69;82.50
41202;BME280;26936;50.524;8.684;2023-04-27T05:33:05;99670.69;;;8.02;80.71
41202;BME280;26936;50.524;8.684;2023-04-27T05:35:32;99674.03;;;8.76;77.22
41202;BME280;26936;50.524;8.684;2023-04-27T05:37:58;99681.19;;;9.32;74.33
41202;BME280;26936;50.524;8.684;2023-04-27T05:40:23;99678.47;;;9.93;72.48
41202;BME280;26936;50.524;8.684;2023-04-27T05:42:49;99669.66;;;10.23;69.19
41202;BME280;26936;50.524;8.684;2023-04-27T05:45:14;99671.19;;;10.68;66.52
41202;BME280;26936;50.524;8.684;2023-04-27T05:47:40;99678.38;;;11.23;64.73
41202;BME280;26936;50.524;8.684;2023-04-27T05:50:05;99673.88;;;11.63;62.76
41202;BME280;26936;50.524;8.684;2023-04-27T05:52:31;99673.22;;;12.06;60.13
41202;BME280;26936;50.524;8.684;2023-04-27T05:54:57;99675.72;;;12.81;58.50
41202;BME280;26936;50.524;8.684;2023-04-27T05:57:23;99685.44;;;13.23;56.60
41202;BME280;26936;50.524;8.684;2023-04-27T05:59:48;99676.47;;;13.55;53.61
41202;BME280;26936;50.524;8.684;2023-04-27T06:02:13;99677.16;;;13.69;52.61
41202;BME280;26936;50.524;8.684;2023-04-27T06:04:39;99668.75;;;14.23;51.23
41202;BME280;26936;50.524;8.684;2023-04-27T06:07:08;99684.34;;;14.18;50.94
41202;BME280;26936;50.524;8.684;2023-04-27T06:09:34;99683.25;;;13.58;52.19
41202;BME280;26936;50.524;8.684;2023-04-27T06:11:59;99683.03;;;12.70;54.62
41202;BME280;26936;50.524;8.684;2023-04-27T06:14:26;99680.78;;;12.09;56.83
41202;BME280;26936;50.524;8.684;2023-04-27T06:16:51;99684.34;;;11.63;57.93
41202;BME280;26936;50.524;8.684;2023-04-27T06:19:16;99683.66;;;11.09;60.28
41202;BME280;26936;50.524;8.684;2023-04-27T06:21:41;99698.38;;;10.87;60.95
41202;BME280;26936;50.524;8.684;2023-04-27T06:24:07;99700.34;;;10.62;61.57
41202;BME280;26936;50.524;8.684;2023-04-27T06:26:32;99701.19;;;10.46;61.69
41202;BME280;26936;50.524;8.684;2023-04-27T06:28:58;99705.44;;;10.38;62.25
41202;BME280;26936;50.524;8.684;2023-04-27T06:31:25;99706.59;;;10.41;62.47
41202;BME280;26936;50.524;8.684;2023-04-27T06:33:50;99698.00;;;10.00;62.70
41202;BME280;26936;50.524;8.684;2023-04-27T06:36:16;99699.75;;;10.26;61.57
41202;BME280;26936;50.524;8.684;2023-04-27T06:38:41;99702.34;;;10.33;61.67
41202;BME280;26936;50.524;8.684;2023-04-27T06:41:06;99698.38;;;10.75;61.04
41202;BME280;26936;50.524;8.684;2023-04-27T06:43:31;99705.31;;;11.62;58.65
41202;BME280;26936;50.524;8.684;2023-04-27T06:45:57;99708.38;;;11.80;57.53
41202;BME280;26936;50.524;8.684;2023-04-27T06:48:22;99711.22;;;11.80;55.15
41202;BME280;26936;50.524;8.684;2023-04-27T06:50:47;99710.94;;;11.99;55.12
41202;BME280;26936;50.524;8.684;2023-04-27T06:53:12;99712.25;;;11.86;55.44
41202;BME280;26936;50.524;8.684;2023-04-27T06:55:38;99718.66;;;11.61;55.78
41202;BME280;26936;50.524;8.684;2023-04-27T06:58:04;99723.28;;;12.61;56.30
41202;BME280;26936;50.524;8.684;2023-04-27T07:00:30;99714.06;;;13.25;53.25
41202;BME280;26936;50.524;8.684;2023-04-27T07:02:55;99706.34;;;13.96;49.34
41202;BME280;26936;50.524;8.684;2023-04-27T07:05:20;99714.91;;;14.86;48.27
41202;BME280;26936;50.524;8.684;2023-04-27T07:07:46;99716.81;;;14.89;46.36
41202;BME280;26936;50.524;8.684;2023-04-27T07:10:11;99707.84;;;14.91;46.79
41202;BME280;26936;50.524;8.684;2023-04-27T07:12:37;99709.38;;;15.70;45.61
41202;BME280;26936;50.524;8.684;2023-04-27T07:15:03;99706.66;;;16.31;44.67
41202;BME280;26936;50.524;8.684;2023-04-27T07:17:30;99703.13;;;16.46;44.81
41202;BME280;26936;50.524;8.684;2023-04-27T07:19:55;99706.84;;;16.90;43.68
41202;BME280;26936;50.524;8.684;2023-04-27T07:22:21;99708.63;;;17.16;41.83
41202;BME280;26936;50.524;8.684;2023-04-27T07:24:46;99697.66;;;16.57;41.13
41202;BME280;26936;50.524;8.684;2023-04-27T07:27:11;99698.22;;;17.42;40.75
41202;BME280;26936;50.524;8.684;2023-04-27T07:29:37;99702.28;;;18.00;39.61
41202;BME280;26936;50.524;8.684;2023-04-27T07:32:07;99697.88;;;17.99;38.80
41202;BME280;26936;50.524;8.684;2023-04-27T07:34:32;99693.22;;;18.16;38.25
41202;BME280;26936;50.524;8.684;2023-04-27T07:36:58;99696.25;;;18.32;36.91
41202;BME280;26936;50.524;8.684;2023-04-27T07:39:23;99695.97;;;18.45;36.79
41202;BME280;26936;50.524;8.684;2023-04-27T07:41:50;99691.59;;;18.69;36.44
41202;BME280;26936;50.524;8.684;2023-04-27T07:44:16;99691.84;;;19.43;34.61
41202;BME280;26936;50.524;8.684;2023-04-27T07:46:42;99688.88;;;18.60;35.87
41202;BME280;26936;50.524;8.684;2023-04-27T07:49:07;99691.59;;;18.49;34.91
41202;BME280;26936;50.524;8.684;2023-04-27T07:51:32;99700.28;;;18.40;36.74
41202;BME280;26936;50.524;8.684;2023-04-27T07:53:58;99697.81;;;18.68;35.55
41202;BME280;26936;50.524;8.684;2023-04-27T07:56:24;99703.41;;;17.88;36.48
41202;BME280;26936;50.524;8.684;2023-04-27T07:58:49;99698.75;;;18.25;36.16
41202;BME280;26936;50.524;8.684;2023-04-27T08:01:14;99693.16;;;18.30;35.83
41202;BME280;26936;50.524;8.684;2023-04-27T08:03:40;99699.97;;;17.84;36.23
41202;BME280;26936;50.524;8.684;2023-04-27T08:06:05;99682.25;;;18.69;36.52
41202;BME280;26936;50.524;8.684;2023-04-27T08:08:31;99682.81;;;19.50;34.69
41202;BME280;26936;50.524;8.684;2023-04-27T08:10:56;99680.31;;;19.32;34.70
41202;BME280;26936;50.524;8.684;2023-04-27T08:13:21;99679.94;;;19.44;33.88
41202;BME280;26936;50.524;8.684;2023-04-27T08:15:47;99680.25;;;19.01;33.63
41202;BME280;26936;50.524;8.684;2023-04-27T08:18:12;99684.50;;;17.70;35.42
41202;BME280;26936;50.524;8.684;2023-04-27T08:20:37;99679.78;;;17.52;36.02
41202;BME280;26936;50.524;8.684;2023-04-27T08:23:02;99677.13;;;17.64;35.87
41202;BME280;26936;50.524;8.684;2023-04-27T08:25:28;99673.41;;;18.47;35.35
41202;BME280;26936;50.524;8.684;2023-04-27T08:27:53;99676.38;;;18.78;35.29
41202;BME280;26936;50.524;8.684;2023-04-27T08:30:18;99680.19;;;19.21;34.41
41202;BME280;26936;50.524;8.684;2023-04-27T08:32:43;99667.19;;;19.45;33.96
41202;BME280;26936;50.524;8.684;2023-04-27T08:35:09;99677.28;;;19.41;33.71
41202;BME280;26936;50.524;8.684;2023-04-27T08:37:35;99679.69;;;19.22;34.12
41202;BME280;26936;50.524;8.684;2023-04-27T08:40:03;99670.25;;;19.67;33.61
41202;BME280;26936;50.524;8.684;2023-04-27T08:42:28;99672.41;;;19.47;33.59
41202;BME280;26936;50.524;8.684;2023-04-27T08:44:54;99677.38;;;18.75;34.34
41202;BME280;26936;50.524;8.684;2023-04-27T08:47:20;99673.78;;;19.00;34.26
41202;BME280;26936;50.524;8.684;2023-04-27T08:49:45;99671.97;;;18.77;33.61
41202;BME280;26936;50.524;8.684;2023-04-27T08:52:14;99671.81;;;18.26;35.17
41202;BME280;26936;50.524;8.684;2023-04-27T08:54:40;99666.94;;;17.92;34.39
41202;BME280;26936;50.524;8.684;2023-04-27T08:57:10;99662.38;;;18.80;34.49
41202;BME280;26936;50.524;8.684;2023-04-27T08:59:36;99670.28;;;17.90;35.49
41202;BME280;26936;50.524;8.684;2023-04-27T09:02:02;99665.72;;;18.99;34.79
41202;BME280;26936;50.524;8.684;2023-04-27T09:04:38;99662.41;;;18.60;34.15
41202;BME280;26936;50.524;8.684;2023-04-27T09:07:14;99653.06;;;19.62;34.69
41202;BME280;26936;50.524;8.684;2023-04-27T09:09:40;99659.75;;;19.95;32.55
41202;BME280;26936;50.524;8.684;2023-04-27T09:12:19;99664.84;;;18.92;33.58
41202;BME280;26936;50.524;8.684;2023-04-27T09:14:58;99662.28;;;19.46;32.25
41202;BME280;26936;50.524;8.684;2023-04-27T09:17:25;99659.06;;;20.06;32.58
41202;BME280;26936;50.524;8.684;2023-04-27T09:19:51;99655.59;;;19.91;31.74
41202;BME280;26936;50.524;8.684;2023-04-27T09:22:16;99655.78;;;19.45;31.12
41202;BME280;26936;50.524;8.684;2023-04-27T09:24:51;99660.38;;;19.12;32.41
41202;BME280;26936;50.524;8.684;2023-04-27T09:27:20;99651.91;;;19.85;32.48
41202;BME280;26936;50.524;8.684;2023-04-27T09:29:46;99655.97;;;19.67;33.71
41202;BME280;26936;50.524;8.684;2023-04-27T09:32:16;99644.72;;;20.48;33.27
41202;BME280;26936;50.524;8.684;2023-04-27T09:34:42;99643.00;;;20.84;32.62
41202;BME280;26936;50.524;8.684;2023-04-27T09:37:08;99645.19;;;21.05;31.77
41202;BME280;26936;50.524;8.684;2023-04-27T09:39:35;99650.16;;;19.93;31.47
41202;BME280;26936;50.524;8.684;2023-04-27T09:42:01;99651.13;;;19.48;30.40
41202;BME280;26936;50.524;8.684;2023-04-27T09:44:29;99650.03;;;19.40;31.38
41202;BME280;26936;50.524;8.684;2023-04-27T09:46:57;99652.47;;;19.52;31.17
41202;BME280;26936;50.524;8.684;2023-04-27T09:49:23;99645.41;;;19.79;32.41
41202;BME280;26936;50.524;8.684;2023-04-27T09:51:50;99645.22;;;19.93;31.22
41202;BME280;26936;50.524;8.684;2023-04-27T09:54:15;99632.69;;;20.28;33.16
41202;BME280;26936;50.524;8.684;2023-04-27T09:56:54;99639.81;;;20.49;30.70
41202;BME280;26936;50.524;8.684;2023-04-27T09:59:46;99631.59;;;19.77;30.98
41202;BME280;26936;50.524;8.684;2023-04-27T10:02:15;99621.78;;;20.32;31.09
41202;BME280;26936;50.524;8.684;2023-04-27T10:05:06;99625.03;;;20.67;30.27
41202;BME280;26936;50.524;8.684;2023-04-27T10:07:38;99617.38;;;19.88;30.29
41202;BME280;26936;50.524;8.684;2023-04-27T10:10:05;99616.69;;;20.04;30.76
41202;BME280;26936;50.524;8.684;2023-04-27T10:12:35;99625.63;;;20.23;31.87
41202;BME280;26936;50.524;8.684;2023-04-27T10:15:11;99616.19;;;20.06;30.49
41202;BME280;26936;50.524;8.684;2023-04-27T10:17:37;99622.84;;;20.34;30.07
41202;BME280;26936;50.524;8.684;2023-04-27T10:20:05;99613.06;;;20.09;30.64
41202;BME280;26936;50.524;8.684;2023-04-27T10:22:39;99611.41;;;20.34;29.68
41202;BME280;26936;50.524;8.684;2023-04-27T10:25:25;99608.41;;;20.12;30.25
41202;BME280;26936;50.524;8.684;2023-04-27T10:28:01;99604.47;;;20.04;30.93
41202;BME280;26936;50.524;8.684;2023-04-27T10:30:34;99609.91;;;20.02;31.53
41202;BME280;26936;50.524;8.684;2023-04-27T10:33:04;99603.72;;;20.09;32.13
41202;BME280;26936;50.524;8.684;2023-04-27T10:40:42;99603.38;;;18.66;33.57
41202;BME280;26936;50.524;8.684;2023-04-27T10:43:13;99596.97;;;19.02;34.58
41202;BME280;26936;50.524;8.684;2023-04-27T10:45:39;99602.66;;;19.59;34.37
41202;BME280;26936;50.524;8.684;2023-04-27T10:48:05;99605.09;;;19.77;32.93
41202;BME280;26936;50.524;8.684;2023-04-27T10:50:30;99613.97;;;18.91;32.97
41202;BME280;26936;50.524;8.684;2023-04-27T10:53:06;99612.91;;;19.40;32.97
41202;BME280;26936;50.524;8.684;2023-04-27T10:55:32;99605.72;;;19.92;34.17
41202;BME280;26936;50.524;8.684;2023-04-27T10:57:58;99605.16;;;20.36;33.35
41202;BME280;26936;50.524;8.684;2023-04-27T11:00:35;99598.72;;;19.98;32.65
41202;BME280;26936;50.524;8.684;2023-04-27T11:03:28;99594.00;;;20.43;33.37
41202;BME280;26936;50.524;8.684;2023-04-27T11:06:00;99593.19;;;20.37;33.75
41202;BME280;26936;50.524;8.684;2023-04-27T11:08:25;99594.00;;;19.95;34.43
41202;BME280;26936;50.524;8.684;2023-04-27T11:10:51;99589.78;;;19.80;33.15
41202;BME280;26936;50.524;8.684;2023-04-27T11:13:18;99590.69;;;19.60;33.08
41202;BME280;26936;50.524;8.684;2023-04-27T11:15:54;99588.75;;;19.83;31.44
41202;BME280;26936;50.524;8.684;2023-04-27T11:18:21;99579.31;;;19.29;32.86
41202;BME280;26936;50.524;8.684;2023-04-27T11:20:51;99576.53;;;19.40;35.81
41202;BME280;26936;50.524;8.684;2023-04-27T11:23:27;99582.00;;;19.44;36.88
41202;BME280;26936;50.524;8.684;2023-04-27T11:25:54;99577.13;;;19.50;35.81
41202;BME280;26936;50.524;8.684;2023-04-27T11:28:20;99583.66;;;19.56;33.40
41202;BME280;26936;50.524;8.684;2023-04-27T11:30:46;99574.53;;;19.46;33.34
41202;BME280;26936;50.524;8.684;2023-04-27T11:33:13;99573.69;;;19.40;36.85
41202;BME280;26936;50.524;8.684;2023-04-27T11:35:38;99572.59;;;19.69;35.42
41202;BME280;26936;50.524;8.684;2023-04-27T11:38:04;99571.16;;;19.17;34.34
41202;BME280;26936;50.524;8.684;2023-04-27T11:40:29;99582.25;;;19.40;34.69
41202;BME280;26936;50.524;8.684;2023-04-27T11:42:58;99570.81;;;19.40;35.23
41202;BME280;26936;50.524;8.684;2023-04-27T11:45:25;99570.44;;;19.27;35.04
41202;BME280;26936;50.524;8.684;2023-04-27T11:47:51;99565.94;;;19.15;36.53
41202;BME280;26936;50.524;8.684;2023-04-27T11:50:17;99564.47;;;18.94;37.55
41202;BME280;26936;50.524;8.684;2023-04-27T11:52:47;99563.84;;;19.16;37.72
41202;BME280;26936;50.524;8.684;2023-04-27T11:55:12;99554.81;;;18.60;38.42
41202;BME280;26936;50.524;8.684;2023-04-27T11:57:40;99561.34;;;18.66;36.87
41202;BME280;26936;50.524;8.684;2023-04-27T12:00:07;99567.41;;;18.48;37.65
41202;BME280;26936;50.524;8.684;2023-04-27T12:02:38;99566.91;;;18.50;35.67
41202;BME280;26936;50.524;8.684;2023-04-27T12:05:03;99556.09;;;18.59;36.12
41202;BME280;26936;50.524;8.684;2023-04-27T12:07:29;99557.63;;;18.55;36.27
41202;BME280;26936;50.524;8.684;2023-04-27T12:09:55;99555.41;;;18.24;36.94
41202;BME280;26936;50.524;8.684;2023-04-27T12:12:20;99557.72;;;18.20;37.32
41202;BME280;26936;50.524;8.684;2023-04-27T12:14:47;99556.94;;;18.20;37.40
41202;BME280;26936;50.524;8.684;2023-04-27T12:17:12;99557.84;;;18.31;34.74
41202;BME280;26936;50.524;8.684;2023-04-27T12:19:38;99552.69;;;17.90;37.24
41202;BME280;26936;50.524;8.684;2023-04-27T12:22:03;99554.31;;;17.76;38.25
41202;BME280;26936;50.524;8.684;2023-04-27T12:24:29;99553.03;;;17.97;38.50
41202;BME280;26936;50.524;8.684;2023-04-27T12:26:54;99548.47;;;17.85;37.89
41202;BME280;26936;50.524;8.684;2023-04-27T12:29:19;99542.53;;;17.69;38.09
41202;BME280;26936;50.524;8.684;2023-04-27T12:31:45;99539.78;;;17.94;38.09
41202;BME280;26936;50.524;8.684;2023-04-27T12:34:10;99544.13;;;17.70;36.59
41202;BME280;26936;50.524;8.684;2023-04-27T12:36:36;99541.28;;;17.70;36.01
41202;BME280;26936;50.524;8.684;2023-04-27T12:39:15;99539.97;;;17.36;37.04
41202;BME280;26936;50.524;8.684;2023-04-27T12:41:43;99530.47;;;17.39;39.96
41202;BME280;26936;50.524;8.684;2023-04-27T12:44:08;99534.63;;;17.58;40.33
41202;BME280;26936;50.524;8.684;2023-04-27T12:46:33;99527.38;;;17.57;40.92
41202;BME280;26936;50.524;8.684;2023-04-27T12:48:59;99529.72;;;17.79;40.07
41202;BME280;26936;50.524;8.684;2023-04-27T12:51:24;99521.47;;;18.01;39.30
41202;BME280;26936;50.524;8.684;2023-04-27T12:53:52;99524.94;;;18.10;41.49
41202;BME280;26936;50.524;8.684;2023-04-27T12:56:17;99529.53;;;18.02;38.94
41202;BME280;26936;50.524;8.684;2023-04-27T12:58:43;99527.06;;;18.15;39.42
41202;BME280;26936;50.524;8.684;2023-04-27T13:01:08;99520.78;;;18.31;38.26
41202;BME280;26936;50.524;8.684;2023-04-27T13:03:40;99526.69;;;18.28;38.32